createdAt,value
2023-03-18T00:00:58.036Z,1184.00
2023-03-18T00:56:24.890Z,1113.00
2023-03-18T01:00:25.837Z,1109.00
2023-03-18T01:04:25.793Z,1102.00
2023-03-18T01:08:25.753Z,1100.00
2023-03-18T01:16:26.036Z,1091.00
2023-03-18T01:20:25.872Z,1093.00
2023-03-18T01:24:25.835Z,1094.00
2023-03-18T01:28:25.824Z,1094.00
2023-03-18T01:32:25.780Z,1097.00
2023-03-18T01:36:25.730Z,1094.00
2023-03-18T01:40:25.864Z,1088.00
2023-03-18T01:44:26.056Z,1078.00
2023-03-18T01:48:26.247Z,1074.00
2023-03-18T01:52:26.444Z,1080.00
2023-03-18T01:56:26.658Z,1069.00
2023-03-18T04:44:33.346Z,945.00
2023-03-18T04:48:33.557Z,945.00
2023-03-18T04:52:33.784Z,937.00
2023-03-18T04:56:34.037Z,936.00
2023-03-18T05:00:34.258Z,938.00
2023-03-18T05:04:34.469Z,933.00
2023-03-18T05:08:34.619Z,929.00
2023-03-18T05:12:34.861Z,924.00
2023-03-18T05:16:35.075Z,925.00
2023-03-18T05:24:35.458Z,918.00
2023-03-18T16:48:45.605Z,767.00
2023-03-18T16:52:45.787Z,774.00
2023-03-18T16:56:45.967Z,772.00
2023-03-18T17:00:46.147Z,765.00
2023-03-18T17:04:46.299Z,764.00
2023-03-18T17:08:46.431Z,765.00
2023-03-18T17:12:46.684Z,761.00
2023-03-18T17:16:46.901Z,758.00
2023-03-18T17:20:47.052Z,762.00
2023-03-18T17:24:47.242Z,761.00
2023-03-18T17:28:47.489Z,762.00
2023-03-18T17:32:47.681Z,760.00
2023-03-18T17:36:47.820Z,756.00
2023-03-18T17:40:47.978Z,756.00
2023-03-18T17:44:48.148Z,757.00
2023-03-18T17:48:48.278Z,752.00
2023-03-18T17:52:48.361Z,758.00
2023-03-18T17:56:48.456Z,754.00
2023-03-18T18:00:48.598Z,753.00
2023-03-18T19:24:48.835Z,747.00
2023-03-18T19:28:57.734Z,744.00
2023-03-18T19:40:48.729Z,743.00
2023-03-18T19:44:48.704Z,743.00
2023-03-18T19:52:48.624Z,743.00
2023-03-18T19:56:48.560Z,743.00
2023-03-18T20:00:48.584Z,739.00
2023-03-18T20:04:48.486Z,736.00
2023-03-18T20:08:48.561Z,735.00
2023-03-18T20:12:48.436Z,732.00
2023-03-18T20:16:48.439Z,730.00
2023-03-18T22:00:50.414Z,718.00
2023-03-18T22:04:50.344Z,710.00
2023-03-18T22:08:50.308Z,707.00
2023-03-18T22:12:50.319Z,706.00
2023-03-18T22:16:50.269Z,704.00
2023-03-18T22:20:50.283Z,715.00
2023-03-18T22:24:50.368Z,716.00
2023-03-18T22:28:50.338Z,714.00
2023-03-18T22:32:50.338Z,714.00
2023-03-18T22:36:50.252Z,708.00
2023-03-18T22:40:50.211Z,705.00
2023-03-18T22:44:50.172Z,699.00
2023-03-18T22:48:50.151Z,697.00
2023-03-18T22:52:50.274Z,697.00
2023-03-18T22:56:50.466Z,698.00
2023-03-18T23:00:50.430Z,697.00
2023-03-18T23:04:50.431Z,697.00
